Time;durP1;ratioP1;P1;durP2;ratioP2;P2;SDS_P1;SDS_P2;PMS_P1;PMS_P2;Temp;Humidity;BMP_temperature;BMP_pressure;BME280_temperature;BME280_humidity;BME280_pressure;Samples;Min_cycle;Max_cycle;Signal;HPM_P1;HPM_P2
2023/12/15 00:00:26;;;;;;;;;9.00;8.00;;;;;8.90;100.00;102833.63;5014207;28;45459;-77
2023/12/15 00:02:51;;;;;;;;;10.33;9.00;;;;;9.17;100.00;102887.97;5013497;28;45305;-76
2023/12/15 00:05:17;;;;;;;;;13.00;10.00;;;;;9.11;100.00;102859.00;5023703;28;45479;-77
2023/12/15 00:07:42;;;;;;;;;12.00;12.00;;;;;8.86;100.00;102834.56;5026421;28;45456;-77
2023/12/15 00:10:08;;;;;;;;;10.33;9.00;;;;;8.94;100.00;102860.00;5033779;28;44704;-79
2023/12/15 00:12:34;;;;;;;;;10.33;7.00;;;;;9.06;100.00;102878.41;5024407;28;46176;-78
2023/12/15 00:14:59;;;;;;;;;10.67;9.00;;;;;8.74;100.00;102834.66;5029212;28;45365;-78
2023/12/15 00:17:24;;;;;;;;;12.67;10.67;;;;;8.78;100.00;102831.09;5017539;28;44816;-78
2023/12/15 00:19:51;;;;;;;;;7.00;7.00;;;;;8.70;100.00;102813.59;5033240;28;45203;-78
2023/12/15 00:22:17;;;;;;;;;10.67;9.33;;;;;8.83;100.00;102846.91;5024746;28;45664;-78
2023/12/15 00:24:42;;;;;;;;;9.00;9.00;;;;;8.95;100.00;102875.84;5002451;28;45301;-78
2023/12/15 00:27:09;;;;;;;;;12.33;11.00;;;;;8.96;100.00;102864.41;5023273;28;45204;-78
2023/12/15 00:29:34;;;;;;;;;9.00;9.00;;;;;8.93;100.00;102859.16;5012943;28;45676;-78
2023/12/15 00:31:59;;;;;;;;;11.00;10.00;;;;;8.85;100.00;102837.22;4999822;28;46972;-78
2023/12/15 00:34:25;;;;;;;;;10.00;9.00;;;;;8.89;100.00;102841.59;5020022;28;45439;-77
2023/12/15 00:36:50;;;;;;;;;11.00;8.33;;;;;8.88;100.00;102851.25;5026278;28;45335;-76
2023/12/15 00:39:15;;;;;;;;;8.00;8.00;;;;;8.99;100.00;102876.69;4991796;28;45471;-77
2023/12/15 00:41:41;;;;;;;;;9.67;8.67;;;;;9.00;100.00;102860.84;5011760;28;45529;-77
2023/12/15 00:44:07;;;;;;;;;10.00;10.00;;;;;9.05;100.00;102866.09;5019275;28;45373;-77
2023/12/15 00:46:32;;;;;;;;;9.67;9.00;;;;;9.07;100.00;102866.94;5005660;28;45412;-77
2023/12/15 00:48:58;;;;;;;;;13.67;10.67;;;;;8.82;100.00;102851.31;5004153;28;45505;-77
2023/12/15 00:51:23;;;;;;;;;13.33;11.67;;;;;8.78;100.00;102840.78;5008983;28;45477;-77
2023/12/15 00:53:48;;;;;;;;;9.67;9.67;;;;;9.08;100.00;102895.97;5010107;28;45496;-76
2023/12/15 00:56:14;;;;;;;;;17.67;12.67;;;;;9.10;100.00;102880.09;4996824;28;45476;-77
2023/12/15 00:58:39;;;;;;;;;11.00;9.00;;;;;8.85;100.00;102851.28;5021244;28;45409;-76
2023/12/15 01:01:06;;;;;;;;;12.33;12.33;;;;;9.10;100.00;102872.19;5021879;28;46390;-77
2023/12/15 01:03:31;;;;;;;;;12.67;10.67;;;;;8.95;100.00;102841.53;5020388;28;46150;-77
2023/12/15 01:05:57;;;;;;;;;13.67;11.67;;;;;8.95;100.00;102830.09;5013379;28;45378;-76
2023/12/15 01:08:22;;;;;;;;;11.33;11.00;;;;;8.99;100.00;102852.94;5001466;28;45697;-76
2023/12/15 01:10:48;;;;;;;;;11.33;11.33;;;;;9.10;100.00;102866.91;5013310;28;45391;-76
2023/12/15 01:13:14;;;;;;;;;15.00;14.33;;;;;9.19;100.00;102875.66;5005892;28;45381;-77
2023/12/15 01:15:39;;;;;;;;;10.00;10.00;;;;;8.87;100.00;102804.66;5018911;28;45455;-76
2023/12/15 01:18:05;;;;;;;;;15.00;15.00;;;;;9.26;100.00;102879.97;5002260;28;45460;-76
2023/12/15 01:20:30;;;;;;;;;15.00;13.33;;;;;9.02;100.00;102859.06;5017016;28;46187;-76
2023/12/15 01:22:56;;;;;;;;;8.67;8.67;;;;;9.07;100.00;102859.91;5000265;28;45410;-77
2023/12/15 01:25:21;;;;;;;;;11.00;10.00;;;;;9.02;100.00;102837.97;5011896;28;45354;-76
2023/12/15 01:27:46;;;;;;;;;13.00;12.00;;;;;8.94;100.00;102826.56;5023226;28;45650;-76
2023/12/15 01:30:12;;;;;;;;;17.00;10.67;;;;;9.00;100.00;102833.59;4997534;28;45595;-76
2023/12/15 01:32:37;;;;;;;;;13.00;9.67;;;;;9.22;100.00;102888.84;5012657;28;45387;-76
2023/12/15 01:35:04;;;;;;;;;14.67;14.33;;;;;9.14;100.00;102874.81;5019624;28;45467;-76
2023/12/15 01:37:29;;;;;;;;;16.33;14.00;;;;;9.35;100.00;102897.53;5014322;28;45466;-77
2023/12/15 01:39:55;;;;;;;;;17.00;13.33;;;;;9.06;100.00;102858.16;5019581;28;46448;-76
2023/12/15 01:42:20;;;;;;;;;15.67;15.00;;;;;9.28;100.00;102896.69;5028201;28;45421;-76
2023/12/15 01:44:46;;;;;;;;;14.00;12.00;;;;;9.05;100.00;102852.88;5016254;28;45780;-76
2023/12/15 01:47:18;;;;;;;;;15.00;13.67;;;;;9.35;100.00;102911.59;5014863;28;45476;-76
2023/12/15 01:49:45;;;;;;;;;16.00;12.33;;;;;9.30;100.00;102896.66;5020202;28;46191;-76
2023/12/15 01:52:10;;;;;;;;;17.33;14.67;;;;;9.10;100.00;102862.50;5005038;28;45878;-76
2023/12/15 01:54:35;;;;;;;;;16.67;11.00;;;;;9.36;100.00;102910.69;5018314;28;45242;-75
2023/12/15 01:57:01;;;;;;;;;16.67;14.33;;;;;9.37;100.00;102917.75;5017836;28;52497;-76
2023/12/15 01:59:26;;;;;;;;;15.67;14.67;;;;;9.30;100.00;102913.38;5021988;28;64141;-76
2023/12/15 02:01:52;;;;;;;;;12.00;10.00;;;;;9.25;100.00;102909.06;5004628;28;45267;-76
2023/12/15 02:04:17;;;;;;;;;17.00;16.00;;;;;9.33;100.00;102921.28;5003815;28;55993;-76
2023/12/15 02:06:46;;;;;;;;;15.67;14.67;;;;;9.35;100.00;102932.72;5007717;28;52706;-76
2023/12/15 02:09:11;;;;;;;;;14.33;14.00;;;;;9.29;100.00;102924.84;5017823;28;45474;-76
2023/12/15 02:11:37;;;;;;;;;19.67;17.33;;;;;9.31;100.00;102927.47;5007202;28;45484;-76
2023/12/15 02:14:02;;;;;;;;;16.33;14.33;;;;;9.21;100.00;102921.41;5016690;28;45418;-76
2023/12/15 02:16:28;;;;;;;;;18.00;14.33;;;;;9.40;100.00;102941.47;5024736;28;45456;-76
2023/12/15 02:18:53;;;;;;;;;14.67;11.67;;;;;9.39;100.00;102947.63;5025084;28;45459;-76
2023/12/15 02:21:18;;;;;;;;;17.00;17.00;;;;;9.35;100.00;102942.41;5025289;28;45422;-76
2023/12/15 02:23:44;;;;;;;;;16.67;14.00;;;;;9.21;100.00;102918.75;5022084;28;45424;-76
2023/12/15 02:26:09;;;;;;;;;15.00;15.00;;;;;9.35;100.00;102963.53;5014624;28;44753;-75
2023/12/15 02:28:34;;;;;;;;;18.00;15.67;;;;;9.22;100.00;102914.34;5025119;28;45589;-77
2023/12/15 02:31:00;;;;;;;;;18.33;15.33;;;;;9.25;100.00;102916.97;5019724;28;45251;-76
2023/12/15 02:33:28;;;;;;;;;20.67;17.00;;;;;9.31;100.00;102928.34;5012951;28;45223;-76
2023/12/15 02:35:54;;;;;;;;;19.67;16.33;;;;;9.11;100.00;102905.63;5026837;28;45389;-76
2023/12/15 02:38:19;;;;;;;;;20.67;16.67;;;;;9.46;100.00;102961.66;5001542;28;46299;-76
2023/12/15 02:40:44;;;;;;;;;16.33;11.00;;;;;9.05;100.00;102885.44;5006745;28;45509;-75
2023/12/15 02:43:11;;;;;;;;;18.00;10.33;;;;;9.02;100.00;102876.66;5006968;28;45425;-75
2023/12/15 02:45:37;;;;;;;;;15.67;11.67;;;;;9.36;100.00;102944.16;5001999;28;45561;-75
2023/12/15 02:48:03;;;;;;;;;19.67;16.67;;;;;9.35;100.00;102945.06;5006337;28;45512;-75
2023/12/15 02:50:28;;;;;;;;;18.33;15.33;;;;;9.30;100.00;102954.75;5020370;28;45433;-76
2023/12/15 02:52:54;;;;;;;;;20.00;14.00;;;;;9.16;100.00;102923.19;5019900;28;45524;-76
2023/12/15 02:55:19;;;;;;;;;17.00;13.67;;;;;9.13;100.00;102917.06;5009303;28;45478;-76
2023/12/15 02:57:45;;;;;;;;;20.33;16.67;;;;;9.11;100.00;102932.03;5010146;28;47443;-75
2023/12/15 03:00:11;;;;;;;;;17.00;16.00;;;;;9.50;100.00;102994.22;5002878;28;45291;-75
2023/12/15 03:02:36;;;;;;;;;17.00;15.00;;;;;9.28;100.00;102962.72;5019514;28;45479;-75
2023/12/15 03:05:01;;;;;;;;;13.33;10.33;;;;;9.37;100.00;102985.53;4993557;28;52553;-75
2023/12/15 03:07:27;;;;;;;;;16.00;14.33;;;;;9.50;100.00;102999.50;5010361;28;46930;-75
2023/12/15 03:09:52;;;;;;;;;17.00;14.33;;;;;9.38;100.00;102984.66;5013333;28;45337;-75
2023/12/15 03:12:18;;;;;;;;;13.33;11.00;;;;;9.09;100.00;102942.63;5001764;28;45841;-75
2023/12/15 03:14:44;;;;;;;;;15.67;14.33;;;;;9.37;100.00;102993.44;5019448;28;45372;-75
2023/12/15 03:17:10;;;;;;;;;17.00;16.00;;;;;9.49;100.00;103010.97;5018975;28;46986;-75
2023/12/15 03:19:38;;;;;;;;;18.67;14.33;;;;;9.38;100.00;102996.09;5019415;28;45273;-75
2023/12/15 03:22:04;;;;;;;;;21.33;16.67;;;;;9.28;100.00;102972.38;5013801;28;45467;-74
2023/12/15 03:24:29;;;;;;;;;19.33;15.67;;;;;9.48;100.00;103002.19;5012459;28;45522;-75
2023/12/15 03:26:54;;;;;;;;;16.00;15.00;;;;;9.41;100.00;102992.53;5005618;28;46572;-76
2023/12/15 03:29:21;;;;;;;;;14.33;12.67;;;;;9.55;100.00;103014.47;5023015;28;46630;-76
2023/12/15 03:31:46;;;;;;;;;16.00;12.67;;;;;9.38;100.00;102997.84;5021285;28;45238;-75
2023/12/15 03:34:11;;;;;;;;;17.00;16.00;;;;;9.41;100.00;103000.47;5007871;28;45425;-75
2023/12/15 03:36:38;;;;;;;;;13.00;13.00;;;;;9.58;100.00;103032.91;4998394;28;46336;-75
2023/12/15 03:39:08;;;;;;;;;19.00;17.00;;;;;9.44;100.00;103026.84;4998071;28;45411;-75
2023/12/15 03:41:33;;;;;;;;;15.00;14.67;;;;;9.58;100.00;103040.84;5017408;28;45408;-75
2023/12/15 03:43:59;;;;;;;;;18.00;16.00;;;;;9.52;100.00;103038.22;5011759;28;45571;-75
2023/12/15 03:46:25;;;;;;;;;21.67;14.33;;;;;9.39;100.00;103031.31;4995510;28;46756;-75
2023/12/15 03:48:50;;;;;;;;;23.00;20.33;;;;;9.39;100.00;103034.78;5001259;28;45303;-75
2023/12/15 03:51:16;;;;;;;;;23.00;16.33;;;;;9.46;100.00;103055.91;5005798;28;45303;-75
2023/12/15 03:53:41;;;;;;;;;17.67;15.33;;;;;9.41;100.00;103045.38;5019044;28;45269;-75
2023/12/15 03:56:07;;;;;;;;;20.33;14.67;;;;;9.40;100.00;103046.25;5018652;28;45490;-75
2023/12/15 03:58:33;;;;;;;;;19.67;17.00;;;;;9.50;100.00;103084.03;5015904;28;45322;-75
2023/12/15 04:00:58;;;;;;;;;19.67;18.67;;;;;9.55;100.00;103072.56;4981422;28;45576;-75
2023/12/15 04:03:24;;;;;;;;;17.00;17.00;;;;;9.29;100.00;103032.25;4983383;28;45513;-75
2023/12/15 04:05:49;;;;;;;;;14.33;14.33;;;;;9.36;100.00;103057.69;5017580;28;48484;-75
2023/12/15 04:08:14;;;;;;;;;14.00;13.00;;;;;9.53;100.00;103095.47;5016095;28;45369;-75
2023/12/15 04:10:40;;;;;;;;;14.67;10.33;;;;;9.51;100.00;103084.03;5011117;28;45471;-74
2023/12/15 04:13:05;;;;;;;;;14.33;14.00;;;;;9.53;100.00;103089.28;5012868;28;45503;-75
2023/12/15 04:15:30;;;;;;;;;13.33;12.00;;;;;9.41;100.00;103077.94;5006191;28;46168;-75
2023/12/15 04:17:56;;;;;;;;;16.00;14.00;;;;;9.52;100.00;103101.63;5005186;28;45484;-75
2023/12/15 04:20:21;;;;;;;;;16.00;14.00;;;;;9.46;100.00;103101.66;5018370;28;45544;-75
2023/12/15 04:22:47;;;;;;;;;15.00;13.33;;;;;9.38;100.00;103082.34;5004437;28;45377;-75
2023/12/15 04:25:12;;;;;;;;;16.67;14.67;;;;;9.45;100.00;103097.28;5006675;28;45611;-75
2023/12/15 04:27:37;;;;;;;;;17.33;15.33;;;;;9.38;100.00;103087.63;5006946;28;45330;-75
2023/12/15 04:30:04;;;;;;;;;20.67;14.00;;;;;9.49;100.00;103112.19;5019655;28;46606;-75
2023/12/15 04:32:29;;;;;;;;;15.33;13.67;;;;;9.21;100.00;103063.09;5019325;28;45520;-75
2023/12/15 04:34:55;;;;;;;;;14.67;14.67;;;;;9.37;100.00;103096.44;5008248;28;46311;-74
2023/12/15 04:37:20;;;;;;;;;15.33;13.00;;;;;9.48;100.00;103122.78;5019406;28;45341;-74
2023/12/15 04:39:46;;;;;;;;;16.67;16.67;;;;;9.42;100.00;103124.56;5019457;28;45246;-75
2023/12/15 04:42:12;;;;;;;;;16.00;14.33;;;;;9.32;100.00;103111.44;5005760;28;45322;-75
2023/12/15 04:44:38;;;;;;;;;17.00;15.33;;;;;9.44;100.00;103132.50;5012011;28;46051;-75
2023/12/15 04:47:04;;;;;;;;;17.33;17.00;;;;;9.41;100.00;103124.59;4980251;28;45303;-74
2023/12/15 04:49:29;;;;;;;;;21.33;13.33;;;;;9.15;100.00;103082.47;4998656;28;45319;-74
2023/12/15 04:51:54;;;;;;;;;13.67;11.33;;;;;9.34;100.00;103130.78;4998594;28;45275;-75
2023/12/15 04:54:20;;;;;;;;;22.33;17.00;;;;;9.17;100.00;103100.94;4996085;28;60653;-74
2023/12/15 04:56:45;;;;;;;;;17.00;16.00;;;;;9.09;100.00;103090.44;5014369;28;45310;-75
2023/12/15 04:59:10;;;;;;;;;17.33;15.33;;;;;9.42;100.00;103150.13;5005168;28;45389;-75
2023/12/15 05:01:36;;;;;;;;;16.33;15.00;;;;;9.31;100.00;103136.09;5006217;28;45553;-75
2023/12/15 05:04:02;;;;;;;;;14.00;12.33;;;;;9.36;100.00;103139.56;5011009;28;57291;-74
2023/12/15 05:06:27;;;;;;;;;17.33;16.00;;;;;9.37;100.00;103152.78;4992203;28;45400;-74
2023/12/15 05:08:53;;;;;;;;;21.67;19.00;;;;;9.38;100.00;103157.19;5003167;28;45390;-74
2023/12/15 05:11:19;;;;;;;;;22.67;18.33;;;;;9.37;100.00;103160.69;5006736;28;45430;-74
2023/12/15 05:13:45;;;;;;;;;20.67;19.33;;;;;9.33;100.00;103155.44;5016424;28;45538;-75
2023/12/15 05:16:11;;;;;;;;;18.00;16.67;;;;;9.30;100.00;103163.38;5004015;28;45338;-74
2023/12/15 05:18:36;;;;;;;;;17.00;17.00;;;;;9.25;100.00;103157.25;4998990;28;45270;-74
2023/12/15 05:21:03;;;;;;;;;16.00;13.00;;;;;9.31;100.00;103170.41;5016500;28;45480;-74
2023/12/15 05:23:29;;;;;;;;;14.33;13.00;;;;;9.34;100.00;103171.28;5016203;28;47208;-74
2023/12/15 05:25:54;;;;;;;;;18.33;16.67;;;;;9.22;100.00;103158.13;5017867;28;45323;-75
2023/12/15 05:28:20;;;;;;;;;17.00;14.67;;;;;9.27;100.00;103172.19;5017909;28;46264;-75
2023/12/15 05:30:45;;;;;;;;;16.00;10.33;;;;;9.27;100.00;103171.31;5016709;28;45328;-75
2023/12/15 05:33:10;;;;;;;;;17.00;16.00;;;;;9.26;100.00;103169.56;4999413;28;45852;-75
2023/12/15 05:35:36;;;;;;;;;18.67;17.00;;;;;9.17;100.00;103151.09;4998365;28;58102;-75
2023/12/15 05:38:02;;;;;;;;;20.00;16.33;;;;;8.98;100.00;103126.53;5004685;28;45420;-74
2023/12/15 05:40:28;;;;;;;;;16.33;16.00;;;;;8.99;100.00;103132.69;5011153;28;45380;-74
2023/12/15 05:42:54;;;;;;;;;17.33;14.33;;;;;9.23;100.00;103175.72;4998866;28;46175;-74
2023/12/15 05:45:19;;;;;;;;;15.67;15.00;;;;;9.03;100.00;103140.59;5016217;28;45380;-75
2023/12/15 05:47:45;;;;;;;;;17.00;16.00;;;;;9.18;100.00;103166.94;5020793;28;45294;-74
2023/12/15 05:50:11;;;;;;;;;15.00;15.00;;;;;9.23;100.00;103166.91;5021271;28;45419;-75
2023/12/15 05:52:36;;;;;;;;;14.67;13.67;;;;;9.14;100.00;103151.09;5006007;28;46933;-75
2023/12/15 05:55:02;;;;;;;;;21.33;17.00;;;;;9.23;100.00;103161.63;5009924;28;45293;-75
2023/12/15 05:57:27;;;;;;;;;15.67;14.00;;;;;9.22;100.00;103163.41;4997625;28;45348;-75
2023/12/15 05:59:52;;;;;;;;;24.00;17.67;;;;;9.22;100.00;103167.81;5010551;28;47326;-75
2023/12/15 06:02:18;;;;;;;;;17.00;16.00;;;;;9.00;100.00;103126.56;5005551;28;60685;-75
2023/12/15 06:04:44;;;;;;;;;17.00;15.00;;;;;9.19;100.00;103154.63;5018995;28;57531;-75
2023/12/15 06:07:09;;;;;;;;;17.67;15.33;;;;;9.18;100.00;103163.41;5007224;28;45498;-75
2023/12/15 06:09:37;;;;;;;;;16.67;13.00;;;;;9.15;100.00;103171.34;5002887;28;45700;-76
2023/12/15 06:12:04;;;;;;;;;16.00;16.00;;;;;9.11;100.00;103177.53;5017841;28;46115;-75
2023/12/15 06:14:29;;;;;;;;;19.00;15.67;;;;;8.99;100.00;103164.38;5010178;28;45522;-75
2023/12/15 06:16:55;;;;;;;;;18.67;15.67;;;;;9.20;100.00;103190.69;5006354;28;46908;-75
2023/12/15 06:19:21;;;;;;;;;20.33;15.33;;;;;9.24;100.00;103203.00;5011062;28;45478;-75
2023/12/15 06:21:47;;;;;;;;;16.00;14.00;;;;;9.19;100.00;103191.59;5013710;28;45444;-75
2023/12/15 06:24:12;;;;;;;;;17.00;14.00;;;;;9.15;100.00;103193.34;5008616;28;45239;-74
2023/12/15 06:26:37;;;;;;;;;16.67;16.67;;;;;9.23;100.00;103217.06;5016842;28;49905;-75
2023/12/15 06:29:03;;;;;;;;;17.33;16.00;;;;;9.16;100.00;103218.00;5002515;28;45350;-74
2023/12/15 06:31:29;;;;;;;;;18.33;14.00;;;;;9.21;100.00;103237.34;5017893;28;45315;-74
2023/12/15 06:33:57;;;;;;;;;15.67;11.33;;;;;9.16;100.00;103226.78;5001075;28;45355;-74
2023/12/15 06:36:22;;;;;;;;;15.33;14.00;;;;;9.12;100.00;103214.50;5013428;28;45325;-74
2023/12/15 06:38:48;;;;;;;;;19.33;15.33;;;;;9.13;100.00;103225.94;5017430;28;45367;-74
2023/12/15 06:41:14;;;;;;;;;19.33;15.67;;;;;8.94;100.00;103203.97;4992275;28;46203;-74
2023/12/15 06:43:43;;;;;;;;;24.00;16.67;;;;;9.08;100.00;103230.31;5021129;28;45282;-75
2023/12/15 06:46:09;;;;;;;;;21.00;14.67;;;;;9.22;100.00;103257.59;5008091;28;45350;-75
2023/12/15 06:48:35;;;;;;;;;17.33;15.33;;;;;9.13;100.00;103241.78;5001571;28;45299;-76
2023/12/15 06:51:01;;;;;;;;;23.00;16.67;;;;;9.26;100.00;103267.28;5008328;28;45472;-75
2023/12/15 06:53:27;;;;;;;;;16.00;14.33;;;;;9.27;100.00;103280.44;5018123;28;45476;-75
2023/12/15 06:55:52;;;;;;;;;21.33;15.00;;;;;9.28;100.00;103278.69;5020189;28;45515;-75
2023/12/15 06:58:19;;;;;;;;;20.00;20.00;;;;;9.28;100.00;103281.34;5009134;28;45540;-75
2023/12/15 07:00:44;;;;;;;;;17.33;15.33;;;;;9.18;100.00;103250.56;5003943;28;45460;-75
2023/12/15 07:03:09;;;;;;;;;24.33;19.33;;;;;9.09;100.00;103242.66;5018548;28;45428;-75
2023/12/15 07:05:35;;;;;;;;;22.33;19.00;;;;;9.24;100.00;103269.00;5014001;28;51182;-75
2023/12/15 07:08:01;;;;;;;;;20.00;17.33;;;;;9.30;100.00;103283.09;5019071;28;45404;-75
2023/12/15 07:10:26;;;;;;;;;18.67;16.33;;;;;9.32;100.00;103291.00;5015462;28;48111;-75
2023/12/15 07:12:51;;;;;;;;;17.00;13.00;;;;;9.28;100.00;103289.25;5019001;28;55324;-75
2023/12/15 07:15:17;;;;;;;;;22.33;20.00;;;;;9.25;100.00;103289.25;5007687;28;45295;-75
2023/12/15 07:17:43;;;;;;;;;24.67;22.33;;;;;9.30;100.00;103312.13;5013306;28;45298;-74
2023/12/15 07:20:09;;;;;;;;;23.67;20.00;;;;;9.22;100.00;103305.13;5010889;28;47110;-74
2023/12/15 07:22:34;;;;;;;;;22.33;21.33;;;;;9.06;100.00;103282.25;5019516;28;45448;-75
2023/12/15 07:25:00;;;;;;;;;22.67;21.33;;;;;9.00;100.00;103254.09;5018237;28;45551;-74
2023/12/15 07:27:26;;;;;;;;;23.67;21.33;;;;;9.34;100.00;103319.16;5008160;28;45464;-74
2023/12/15 07:29:52;;;;;;;;;21.00;16.00;;;;;9.31;100.00;103307.72;4998159;28;47779;-74
2023/12/15 07:32:18;;;;;;;;;22.33;19.33;;;;;9.35;100.00;103313.03;5019034;28;45575;-74
2023/12/15 07:34:43;;;;;;;;;29.33;20.00;;;;;9.27;100.00;103306.84;5008751;28;45398;-74
2023/12/15 07:37:08;;;;;;;;;29.67;27.00;;;;;9.21;100.00;103287.50;5023779;28;45340;-75
2023/12/15 07:39:34;;;;;;;;;20.00;16.67;;;;;9.29;100.00;103320.91;5008187;28;46814;-74
2023/12/15 07:42:00;;;;;;;;;25.00;22.00;;;;;9.18;100.00;103303.34;5021582;28;45353;-74
2023/12/15 07:44:25;;;;;;;;;23.33;19.67;;;;;9.14;100.00;103298.94;5021597;28;45397;-75
2023/12/15 07:46:53;;;;;;;;;25.00;22.00;;;;;9.04;100.00;103291.91;5020497;28;45262;-74
2023/12/15 07:49:19;;;;;;;;;21.33;17.00;;;;;9.45;100.00;103352.59;5019822;28;46023;-74
2023/12/15 07:51:45;;;;;;;;;22.00;19.67;;;;;9.30;100.00;103320.06;5022877;28;45319;-74
2023/12/15 07:54:11;;;;;;;;;24.67;21.67;;;;;9.41;100.00;103339.41;5029221;28;45538;-75
2023/12/15 07:56:36;;;;;;;;;23.67;22.00;;;;;9.28;100.00;103315.66;5025237;28;45349;-74
2023/12/15 07:59:01;;;;;;;;;21.00;18.67;;;;;9.46;100.00;103357.88;5029065;28;45363;-74
2023/12/15 08:01:27;;;;;;;;;29.67;26.00;;;;;9.46;100.00;103365.78;5016099;28;45422;-74
2023/12/15 08:03:52;;;;;;;;;24.67;20.00;;;;;9.42;100.00;103356.16;5003584;28;45546;-75
2023/12/15 08:06:19;;;;;;;;;27.25;24.00;;;;;9.44;100.00;103362.28;5026940;28;45357;-75
2023/12/15 08:08:45;;;;;;;;;28.67;24.33;;;;;9.47;100.00;103371.97;5011011;28;45598;-74
2023/12/15 08:11:11;;;;;;;;;31.67;23.00;;;;;9.40;100.00;103361.41;5026324;28;45242;-74
2023/12/15 08:13:40;;;;;;;;;26.00;21.00;;;;;9.36;100.00;103356.13;5011902;28;45322;-74
2023/12/15 08:16:07;;;;;;;;;22.00;21.00;;;;;9.48;100.00;103379.91;5018813;28;45503;-74
2023/12/15 08:18:33;;;;;;;;;23.33;20.00;;;;;9.47;100.00;103375.50;5024550;28;45480;-75
2023/12/15 08:20:59;;;;;;;;;34.00;23.33;;;;;9.53;100.00;103382.50;5005420;28;45365;-76
2023/12/15 08:23:25;;;;;;;;;22.00;21.33;;;;;9.56;100.00;103393.97;5012201;28;45398;-75
2023/12/15 08:25:50;;;;;;;;;26.00;22.00;;;;;9.51;100.00;103385.19;5020022;28;45338;-75
2023/12/15 08:28:18;;;;;;;;;33.67;22.00;;;;;9.60;100.00;103395.72;5000276;28;46292;-75
2023/12/15 08:30:44;;;;;;;;;23.67;22.00;;;;;9.49;100.00;103384.28;5003848;28;45222;-75
2023/12/15 08:33:10;;;;;;;;;29.33;22.33;;;;;9.55;100.00;103386.06;5017385;28;45330;-74
2023/12/15 08:35:35;;;;;;;;;33.33;23.00;;;;;9.62;100.00;103401.03;5005149;28;45468;-74
2023/12/15 08:38:00;;;;;;;;;33.33;26.33;;;;;9.59;100.00;103391.31;5016647;28;46039;-74
2023/12/15 08:40:27;;;;;;;;;25.00;20.67;;;;;9.51;100.00;103393.09;5016838;28;55961;-75
2023/12/15 08:42:52;;;;;;;;;28.33;23.33;;;;;9.38;100.00;103357.91;5008287;28;45389;-74
2023/12/15 08:45:18;;;;;;;;;33.33;28.33;;;;;9.46;100.00;103370.22;5005364;28;45350;-74
2023/12/15 08:47:43;;;;;;;;;24.67;22.00;;;;;9.74;100.00;103423.00;5019414;28;45535;-74
2023/12/15 08:50:09;;;;;;;;;23.67;23.67;;;;;9.67;100.00;103408.03;5018548;28;45385;-75
2023/12/15 08:52:34;;;;;;;;;31.33;28.00;;;;;9.41;100.00;103351.72;5001142;28;45685;-74
2023/12/15 08:55:00;;;;;;;;;26.00;23.33;;;;;9.65;100.00;103388.66;5018255;28;45470;-74
2023/12/15 08:57:25;;;;;;;;;26.00;23.00;;;;;9.59;100.00;103375.47;5017772;28;45325;-74
2023/12/15 08:59:51;;;;;;;;;24.67;21.67;;;;;9.88;100.00;103418.56;4999972;28;45353;-74
2023/12/15 09:02:16;;;;;;;;;29.00;27.00;;;;;9.81;100.00;103408.03;5016579;28;45487;-74
2023/12/15 09:04:42;;;;;;;;;34.33;28.00;;;;;9.68;100.00;103375.47;5004983;28;45368;-75
2023/12/15 09:07:07;;;;;;;;;22.00;21.33;;;;;9.72;100.00;103371.03;5010561;28;47270;-75
2023/12/15 09:09:34;;;;;;;;;26.00;22.67;;;;;9.93;100.00;103415.91;5015753;28;45436;-74
2023/12/15 09:12:00;;;;;;;;;31.33;23.00;;;;;10.05;100.00;103439.66;4992876;28;45469;-75
2023/12/15 09:14:26;;;;;;;;;23.33;20.33;;;;;10.10;100.00;103437.91;5019953;28;45268;-74
2023/12/15 09:16:51;;;;;;;;;29.67;25.33;;;;;10.09;100.00;103440.53;5020787;28;46669;-74
2023/12/15 09:19:17;;;;;;;;;30.67;25.00;;;;;10.02;100.00;103429.09;5006439;28;45432;-74
2023/12/15 09:21:42;;;;;;;;;28.00;27.33;;;;;10.18;100.00;103449.34;4994905;28;45585;-74
2023/12/15 09:24:08;;;;;;;;;27.67;24.67;;;;;10.11;100.00;103434.34;5016779;28;45517;-75
2023/12/15 09:26:34;;;;;;;;;27.33;25.00;;;;;10.00;100.00;103417.66;5020963;28;45427;-74
2023/12/15 09:28:59;;;;;;;;;21.67;19.67;;;;;10.14;100.00;103429.13;5021291;28;45355;-75
2023/12/15 09:31:24;;;;;;;;;30.33;25.67;;;;;10.20;100.00;103436.13;5012649;28;45431;-75
2023/12/15 09:33:50;;;;;;;;;25.00;23.33;;;;;10.34;100.00;103450.19;5015848;28;46896;-75
2023/12/15 09:36:16;;;;;;;;;28.67;25.67;;;;;10.03;100.00;103404.44;5002729;28;48137;-75
2023/12/15 09:38:41;;;;;;;;;32.33;28.33;;;;;10.10;100.00;103400.00;5021082;28;45255;-74
2023/12/15 09:41:07;;;;;;;;;26.33;21.00;;;;;10.51;100.00;103471.28;5014649;28;45421;-76
2023/12/15 09:43:33;;;;;;;;;24.33;23.33;;;;;10.20;100.00;103415.88;5014324;28;45328;-76
2023/12/15 09:45:59;;;;;;;;;21.00;20.33;;;;;10.45;100.00;103454.53;5002877;28;47093;-75
2023/12/15 09:48:27;;;;;;;;;30.00;24.67;;;;;10.42;100.00;103440.44;5000626;28;45768;-76
2023/12/15 09:50:56;;;;;;;;;24.33;23.33;;;;;10.64;100.00;103475.63;5010377;28;45543;-75
2023/12/15 09:53:21;;;;;;;;;26.67;21.33;;;;;10.62;100.00;103475.66;5021854;28;45297;-75
2023/12/15 09:55:48;;;;;;;;;22.33;18.00;;;;;10.54;100.00;103456.25;5020890;28;45475;-75
2023/12/15 09:58:13;;;;;;;;;19.33;18.00;;;;;10.66;100.00;103466.81;5012189;28;45400;-75
2023/12/15 10:00:39;;;;;;;;;26.67;24.00;;;;;10.80;100.00;103496.72;4994043;28;45387;-75
2023/12/15 10:03:04;;;;;;;;;26.67;23.33;;;;;10.91;100.00;103508.13;5008590;28;45331;-75
2023/12/15 10:05:30;;;;;;;;;33.67;26.00;;;;;11.01;100.00;103516.03;5010710;28;51823;-75
2023/12/15 10:07:56;;;;;;;;;22.33;20.00;;;;;10.96;100.00;103508.13;5005759;28;45418;-75
2023/12/15 10:10:23;;;;;;;;;24.00;24.00;;;;;10.93;100.00;103516.94;5002871;28;45553;-75
2023/12/15 10:12:49;;;;;;;;;18.33;17.33;;;;;10.87;100.00;103498.44;5007217;28;45568;-75
2023/12/15 10:15:15;;;;;;;;;28.67;22.00;;;;;10.74;100.00;103475.56;5000700;28;47476;-75
2023/12/15 10:17:40;;;;;;;;;30.67;23.67;;;;;10.95;100.00;103506.34;5010107;28;45438;-74
2023/12/15 10:20:10;;;;;;;;;25.33;21.67;;;;;10.92;100.00;103509.91;5026772;28;45395;-75
2023/12/15 10:22:38;;;;;;;;;25.67;25.67;;;;;10.88;100.00;103494.91;5008743;28;45346;-75
2023/12/15 10:25:15;;;;;;;;;20.33;16.00;;;;;10.95;100.00;103509.91;5028237;28;45480;-75
2023/12/15 10:27:40;;;;;;;;;19.33;18.00;;;;;10.97;100.00;103509.88;5029920;28;45486;-75
2023/12/15 10:30:06;;;;;;;;;24.00;20.33;;;;;11.02;100.00;103517.78;5004806;28;47482;-75
2023/12/15 10:32:33;;;;;;;;;26.67;19.67;;;;;10.95;100.00;103501.06;5019400;28;45255;-75
2023/12/15 10:35:00;;;;;;;;;22.67;22.33;;;;;11.21;100.00;103538.88;4989582;28;46195;-75
2023/12/15 10:37:27;;;;;;;;;21.67;20.33;;;;;10.96;100.00;103506.34;5019057;28;45298;-76
2023/12/15 10:39:54;;;;;;;;;24.33;21.33;;;;;11.19;100.00;103580.38;5002572;28;45398;-75
2023/12/15 10:42:21;;;;;;;;;27.00;23.00;;;;;11.24;100.00;103561.81;5021745;28;45281;-75
2023/12/15 10:44:46;;;;;;;;;24.33;23.33;;;;;11.33;100.00;103570.56;5008245;28;47239;-75
2023/12/15 10:47:12;;;;;;;;;21.67;20.00;;;;;11.32;100.00;103567.94;5004011;28;45319;-76
2023/12/15 10:49:40;;;;;;;;;24.33;20.33;;;;;11.20;100.00;103555.63;5018723;28;45344;-76
2023/12/15 10:52:07;;;;;;;;;20.67;19.00;;;;;11.10;100.00;103547.75;5020550;28;45284;-76
2023/12/15 10:54:34;;;;;;;;;23.00;20.67;;;;;11.19;100.00;103545.06;5020078;28;45317;-75
2023/12/15 10:56:59;;;;;;;;;26.67;21.67;;;;;11.37;100.00;103585.56;4990650;28;45502;-75
2023/12/15 10:59:27;;;;;;;;;23.67;19.00;;;;;11.43;100.00;103596.13;4996701;28;45537;-76
2023/12/15 11:01:53;;;;;;;;;27.00;22.00;;;;;11.46;100.00;103611.13;4993625;28;45264;-75